Time;durP1;ratioP1;P1;durP2;ratioP2;P2;SDS_P1;SDS_P2;PMS_P1;PMS_P2;Temp;Humidity;BMP_temperature;BMP_pressure;BME280_temperature;BME280_humidity;BME280_pressure;Samples;Min_cycle;Max_cycle;Signal;HPM_P1;HPM_P2
2022/12/03 00:00:39;;;;;;;63.37;22.83;;;;;;;;;;5093685;28;20459;-69
2022/12/03 00:03:07;;;;;;;52.30;18.60;;;;;;;;;;5093583;28;20494;-69
2022/12/03 00:05:34;;;;;;;42.83;19.20;;;;;;;;;;5093200;28;20465;-69
2022/12/03 00:08:01;;;;;;;50.90;21.13;;;;;;;;;;5093191;28;20466;-69
2022/12/03 00:10:29;;;;;;;48.23;23.23;;;;;;;;;;5093329;28;20837;-69
2022/12/03 00:12:56;;;;;;;42.70;22.33;;;;;;;;;;5093810;28;20935;-69
2022/12/03 00:15:23;;;;;;;53.10;24.70;;;;;;;;;;5093460;28;20450;-70
2022/12/03 00:17:50;;;;;;;50.60;21.30;;;;;;;;;;5093037;28;20493;-70
2022/12/03 00:20:21;;;;;;;55.30;20.13;;;;;;;;;;5093297;28;20508;-70
2022/12/03 00:22:48;;;;;;;52.63;21.50;;;;;;;;;;5093218;28;20454;-70
2022/12/03 00:25:15;;;;;;;45.07;20.57;;;;;;;;;;5093496;28;20545;-70
2022/12/03 00:27:42;;;;;;;41.77;19.47;;;;;;;;;;5093356;28;20466;-70
2022/12/03 00:30:11;;;;;;;32.40;13.30;;;;;;;;;;5093399;28;20435;-70
2022/12/03 00:32:38;;;;;;;33.70;15.20;;;;;;;;;;5093326;28;20453;-70
2022/12/03 00:35:05;;;;;;;57.70;22.03;;;;;;;;;;5093090;28;20928;-70
2022/12/03 00:37:34;;;;;;;52.07;22.30;;;;;;;;;;5092891;28;20509;-70
2022/12/03 00:40:01;;;;;;;48.57;22.00;;;;;;;;;;5093181;28;20500;-70
2022/12/03 00:42:29;;;;;;;47.00;18.60;;;;;;;;;;5092954;28;20454;-70
2022/12/03 00:44:56;;;;;;;48.67;18.87;;;;;;;;;;5093042;28;20490;-70
2022/12/03 00:47:23;;;;;;;51.53;22.23;;;;;;;;;;5093143;28;20987;-70
2022/12/03 00:49:50;;;;;;;63.40;24.73;;;;;;;;;;5093162;28;20451;-70
2022/12/03 00:52:17;;;;;;;50.47;17.77;;;;;;;;;;5093132;28;20450;-71
2022/12/03 00:54:46;;;;;;;56.40;20.20;;;;;;;;;;5093197;28;20443;-71
2022/12/03 00:57:13;;;;;;;51.30;21.90;;;;;;;;;;5092758;28;20479;-71
2022/12/03 00:59:40;;;;;;;42.97;20.57;;;;;;;;;;5093097;28;20435;-71
2022/12/03 01:02:07;;;;;;;47.47;19.70;;;;;;;;;;5092907;28;20458;-70
2022/12/03 01:04:34;;;;;;;44.10;19.63;;;;;;;;;;5092952;28;20487;-71
2022/12/03 01:07:01;;;;;;;33.47;16.80;;;;;;;;;;5093040;28;20529;-71
2022/12/03 01:09:28;;;;;;;59.87;19.53;;;;;;;;;;5092603;28;20461;-70
2022/12/03 01:11:57;;;;;;;47.40;19.60;;;;;;;;;;5092916;28;20453;-70
2022/12/03 01:14:24;;;;;;;42.33;20.03;;;;;;;;;;5093051;28;20442;-70
2022/12/03 01:16:51;;;;;;;53.13;22.67;;;;;;;;;;5092691;28;21005;-70
2022/12/03 01:19:18;;;;;;;46.40;20.77;;;;;;;;;;5092651;28;20461;-70
2022/12/03 01:21:47;;;;;;;24.90;9.90;;;;;;;;;;5096294;28;20943;-70
2022/12/03 01:24:14;;;;;;;47.03;20.73;;;;;;;;;;5096587;28;21003;-70
2022/12/03 01:26:41;;;;;;;40.50;19.80;;;;;;;;;;5096562;28;20955;-70
2022/12/03 01:29:10;;;;;;;43.20;14.87;;;;;;;;;;5096334;28;20430;-70
2022/12/03 01:34:22;;;;;;;27.87;11.10;;;;;;;;;;5096303;28;20406;-71
2022/12/03 01:36:51;;;;;;;51.97;21.20;;;;;;;;;;5096340;28;20493;-70
2022/12/03 01:39:18;;;;;;;43.07;16.67;;;;;;;;;;5096269;28;20969;-70
2022/12/03 01:41:45;;;;;;;26.50;10.47;;;;;;;;;;5096346;28;20962;-70
2022/12/03 01:44:16;;;;;;;38.17;17.50;;;;;;;;;;5096235;28;20482;-70
2022/12/03 01:46:43;;;;;;;31.37;13.20;;;;;;;;;;5096167;28;20475;-70
2022/12/03 01:49:14;;;;;;;22.13;10.57;;;;;;;;;;5096163;28;20446;-70
2022/12/03 01:51:41;;;;;;;48.43;17.60;;;;;;;;;;5096084;28;20446;-70
2022/12/03 01:54:11;;;;;;;40.67;15.93;;;;;;;;;;5095817;28;20802;-70
2022/12/03 01:56:38;;;;;;;46.93;18.17;;;;;;;;;;5095959;28;20477;-70
2022/12/03 01:59:05;;;;;;;44.17;14.67;;;;;;;;;;5096009;28;20438;-70
2022/12/03 02:01:33;;;;;;;33.53;14.97;;;;;;;;;;5095845;28;20546;-70
2022/12/03 02:04:00;;;;;;;61.37;17.00;;;;;;;;;;5095852;28;20485;-70
2022/12/03 02:06:29;;;;;;;37.53;16.90;;;;;;;;;;5095433;28;20459;-70
2022/12/03 02:08:58;;;;;;;52.27;18.50;;;;;;;;;;5095753;28;20974;-70
2022/12/03 02:11:26;;;;;;;49.03;18.90;;;;;;;;;;5095404;28;20454;-70
2022/12/03 02:13:56;;;;;;;48.13;19.30;;;;;;;;;;5095441;28;20454;-70
2022/12/03 02:16:23;;;;;;;38.87;16.50;;;;;;;;;;5095379;28;20978;-70
2022/12/03 02:18:51;;;;;;;49.03;17.23;;;;;;;;;;5095471;28;20446;-70
2022/12/03 02:21:21;;;;;;;50.00;19.27;;;;;;;;;;5095557;28;20828;-71
2022/12/03 02:23:54;;;;;;;46.77;17.70;;;;;;;;;;5095379;28;20451;-70
2022/12/03 02:26:22;;;;;;;52.57;20.00;;;;;;;;;;5095351;28;20905;-70
2022/12/03 02:28:49;;;;;;;57.13;20.10;;;;;;;;;;5095177;28;20435;-70
2022/12/03 02:31:16;;;;;;;43.77;16.23;;;;;;;;;;5094572;28;20455;-70
2022/12/03 02:33:44;;;;;;;41.93;19.67;;;;;;;;;;5094931;28;20449;-70
2022/12/03 02:36:11;;;;;;;47.77;18.90;;;;;;;;;;5094872;28;20457;-70
2022/12/03 02:38:39;;;;;;;33.80;16.47;;;;;;;;;;5095139;28;20450;-70
2022/12/03 02:41:07;;;;;;;45.20;18.40;;;;;;;;;;5094768;28;20446;-70
2022/12/03 02:43:35;;;;;;;40.30;18.00;;;;;;;;;;5094644;28;20529;-71
2022/12/03 02:46:04;;;;;;;48.10;19.90;;;;;;;;;;5095100;28;20516;-70
2022/12/03 02:48:33;;;;;;;34.97;18.50;;;;;;;;;;5094878;28;20474;-70
2022/12/03 02:51:03;;;;;;;46.07;19.80;;;;;;;;;;5094917;28;20451;-70
2022/12/03 02:53:31;;;;;;;51.00;19.60;;;;;;;;;;5094917;28;20434;-70
2022/12/03 02:55:59;;;;;;;48.77;17.07;;;;;;;;;;5094816;28;21084;-70
2022/12/03 02:58:28;;;;;;;46.80;19.17;;;;;;;;;;5094294;28;20473;-71
2022/12/03 03:00:56;;;;;;;43.43;17.60;;;;;;;;;;5094379;28;20452;-71
2022/12/03 03:03:25;;;;;;;49.83;18.10;;;;;;;;;;5094620;28;20458;-71
2022/12/03 03:05:52;;;;;;;48.90;18.47;;;;;;;;;;5094665;28;20994;-70
2022/12/03 03:08:19;;;;;;;36.30;16.40;;;;;;;;;;5094546;28;20819;-70
2022/12/03 03:10:48;;;;;;;37.97;14.10;;;;;;;;;;5094512;28;20454;-70
2022/12/03 03:13:18;;;;;;;56.57;20.43;;;;;;;;;;5094278;28;20474;-70
2022/12/03 03:15:46;;;;;;;34.57;17.70;;;;;;;;;;5094438;28;20428;-70
2022/12/03 03:18:15;;;;;;;37.83;18.37;;;;;;;;;;5094410;28;20469;-70
2022/12/03 03:20:43;;;;;;;34.43;15.83;;;;;;;;;;5094176;28;20434;-70
2022/12/03 03:23:15;;;;;;;43.90;20.30;;;;;;;;;;5094098;28;20492;-71
2022/12/03 03:25:44;;;;;;;35.43;17.53;;;;;;;;;;5094307;28;20826;-71
2022/12/03 03:28:11;;;;;;;51.20;20.50;;;;;;;;;;5094215;28;20835;-71
2022/12/03 03:30:39;;;;;;;31.63;13.80;;;;;;;;;;5093907;28;20453;-71
2022/12/03 03:33:07;;;;;;;35.13;14.90;;;;;;;;;;5094229;28;20447;-71
2022/12/03 03:35:36;;;;;;;32.27;14.17;;;;;;;;;;5094193;28;20443;-71
2022/12/03 03:38:04;;;;;;;24.10;11.40;;;;;;;;;;5093968;28;20467;-71
2022/12/03 03:40:31;;;;;;;48.93;16.97;;;;;;;;;;5093760;28;20453;-70
2022/12/03 03:42:58;;;;;;;39.40;16.57;;;;;;;;;;5093085;28;20454;-71
2022/12/03 03:45:26;;;;;;;28.80;15.33;;;;;;;;;;5093635;28;20496;-71
2022/12/03 03:47:53;;;;;;;32.17;13.77;;;;;;;;;;5093828;28;20473;-70
2022/12/03 03:50:20;;;;;;;33.10;12.67;;;;;;;;;;5093778;28;20925;-70
2022/12/03 03:52:49;;;;;;;37.63;17.07;;;;;;;;;;5093862;28;20453;-70
2022/12/03 03:55:17;;;;;;;37.00;17.37;;;;;;;;;;5093828;28;20443;-70
2022/12/03 03:57:45;;;;;;;37.47;15.60;;;;;;;;;;5093703;28;20477;-70
2022/12/03 04:00:13;;;;;;;34.90;16.93;;;;;;;;;;5093717;28;20446;-70
2022/12/03 04:02:41;;;;;;;39.97;16.87;;;;;;;;;;5093729;28;20447;-70
2022/12/03 04:05:10;;;;;;;45.73;17.30;;;;;;;;;;5093194;28;20487;-70
2022/12/03 04:07:37;;;;;;;30.90;14.90;;;;;;;;;;5093318;28;20480;-70
2022/12/03 04:12:54;;;;;;;36.80;14.10;;;;;;;;;;5093700;28;20443;-70
2022/12/03 04:13:01;;;;;;;27.30;14.07;;;;;;;;;;5093304;28;20476;-70
2022/12/03 04:15:29;;;;;;;43.43;18.47;;;;;;;;;;5093222;28;20571;-70
2022/12/03 04:20:41;;;;;;;33.53;13.60;;;;;;;;;;5093313;28;20406;-70
2022/12/03 04:23:07;;;;;;;29.30;14.40;;;;;;;;;;5093448;28;20450;-70
2022/12/03 04:36:32;;;;;;;26.40;13.20;;;;;;;;;;5092901;28;20450;-71
2022/12/03 04:38:59;;;;;;;30.20;14.70;;;;;;;;;;5092983;28;20451;-70
2022/12/03 04:41:28;;;;;;;27.67;15.80;;;;;;;;;;5093423;28;20442;-71
2022/12/03 04:46:39;;;;;;;32.60;15.80;;;;;;;;;;5093098;28;20517;-71
2022/12/03 04:49:07;;;;;;;29.83;15.37;;;;;;;;;;5093181;28;20818;-71
2022/12/03 04:51:34;;;;;;;29.67;15.00;;;;;;;;;;5092923;28;20447;-71
2022/12/03 04:54:01;;;;;;;32.23;14.90;;;;;;;;;;5093772;28;20473;-71
2022/12/03 04:56:29;;;;;;;28.53;14.50;;;;;;;;;;5096847;28;20447;-71
2022/12/03 04:58:56;;;;;;;26.10;13.53;;;;;;;;;;5096913;28;20442;-71
2022/12/03 05:01:23;;;;;;;34.10;14.17;;;;;;;;;;5097092;28;21048;-71
2022/12/03 05:03:51;;;;;;;36.90;16.60;;;;;;;;;;5097120;28;20562;-71
2022/12/03 05:06:18;;;;;;;25.00;12.93;;;;;;;;;;5096891;28;20512;-71
2022/12/03 05:08:45;;;;;;;25.00;13.60;;;;;;;;;;5096744;28;20454;-71
2022/12/03 05:11:12;;;;;;;29.63;14.97;;;;;;;;;;5097009;28;20469;-71
2022/12/03 05:13:40;;;;;;;31.17;15.40;;;;;;;;;;5096543;28;20457;-71
2022/12/03 05:16:08;;;;;;;27.70;14.37;;;;;;;;;;5096511;28;20453;-71
2022/12/03 05:18:35;;;;;;;25.40;14.20;;;;;;;;;;5096839;28;20809;-71
2022/12/03 05:21:02;;;;;;;30.33;14.60;;;;;;;;;;5096666;28;20465;-70
2022/12/03 05:23:29;;;;;;;30.23;12.83;;;;;;;;;;5096713;28;20948;-70
2022/12/03 05:25:56;;;;;;;24.40;13.30;;;;;;;;;;5096116;28;20482;-70
2022/12/03 05:28:23;;;;;;;27.63;14.63;;;;;;;;;;5096296;28;20573;-70
2022/12/03 05:30:52;;;;;;;34.27;16.37;;;;;;;;;;5096592;28;20805;-70
2022/12/03 05:33:19;;;;;;;27.53;15.57;;;;;;;;;;5096532;28;20446;-70
2022/12/03 05:35:46;;;;;;;27.03;14.30;;;;;;;;;;5096596;28;20478;-70
2022/12/03 05:38:14;;;;;;;30.57;14.03;;;;;;;;;;5096380;28;20537;-70
2022/12/03 05:40:41;;;;;;;27.73;13.47;;;;;;;;;;5096111;28;20453;-70
2022/12/03 05:43:07;;;;;;;31.70;13.10;;;;;;;;;;5096402;28;20450;-70
2022/12/03 05:45:36;;;;;;;30.43;14.17;;;;;;;;;;5096040;28;20482;-70
2022/12/03 05:48:05;;;;;;;32.63;14.03;;;;;;;;;;5096209;28;20466;-70
2022/12/03 05:50:33;;;;;;;27.53;13.93;;;;;;;;;;5096224;28;20499;-70
2022/12/03 05:53:00;;;;;;;29.27;13.90;;;;;;;;;;5096161;28;20473;-70
2022/12/03 05:55:27;;;;;;;27.47;16.03;;;;;;;;;;5095767;28;20454;-70
2022/12/03 05:57:55;;;;;;;24.60;14.07;;;;;;;;;;5095760;28;20504;-70
2022/12/03 06:00:23;;;;;;;22.23;12.00;;;;;;;;;;5096194;28;20435;-70
2022/12/03 06:02:50;;;;;;;33.87;16.20;;;;;;;;;;5095659;28;20465;-70
2022/12/03 06:05:19;;;;;;;31.10;14.70;;;;;;;;;;5095744;28;20839;-70
2022/12/03 06:07:46;;;;;;;24.37;13.47;;;;;;;;;;5095098;28;20471;-70
2022/12/03 06:10:15;;;;;;;28.00;15.13;;;;;;;;;;5096134;28;20441;-70
2022/12/03 06:12:42;;;;;;;23.87;13.13;;;;;;;;;;5095970;28;20446;-70
2022/12/03 06:15:10;;;;;;;23.80;13.10;;;;;;;;;;5095442;28;20451;-70
2022/12/03 06:17:37;;;;;;;28.33;14.57;;;;;;;;;;5095264;28;20486;-70
2022/12/03 06:20:04;;;;;;;25.03;13.50;;;;;;;;;;5095319;28;20455;-70
2022/12/03 06:22:33;;;;;;;25.27;15.10;;;;;;;;;;5095216;28;20446;-70
2022/12/03 06:25:00;;;;;;;27.03;13.20;;;;;;;;;;5094892;28;20486;-70
2022/12/03 06:27:27;;;;;;;28.25;17.02;;;;;;;;;;5094642;28;20781;-70
2022/12/03 06:29:54;;;;;;;31.97;14.53;;;;;;;;;;5094782;28;20199;-70
2022/12/03 06:32:22;;;;;;;28.60;14.03;;;;;;;;;;5095063;28;20427;-70
2022/12/03 06:34:49;;;;;;;21.17;9.40;;;;;;;;;;5094920;28;20446;-70
2022/12/03 06:37:16;;;;;;;23.87;11.87;;;;;;;;;;5095017;28;20843;-70
2022/12/03 06:39:44;;;;;;;19.43;11.97;;;;;;;;;;5094015;28;20461;-70
2022/12/03 06:42:11;;;;;;;27.57;16.80;;;;;;;;;;5094764;28;20451;-70
2022/12/03 06:44:38;;;;;;;26.30;15.00;;;;;;;;;;5094842;28;20450;-70
2022/12/03 06:47:06;;;;;;;24.33;14.07;;;;;;;;;;5094512;28;20590;-70
2022/12/03 06:49:33;;;;;;;22.10;15.20;;;;;;;;;;5094752;28;20450;-70
2022/12/03 06:52:00;;;;;;;22.47;12.30;;;;;;;;;;5094811;28;20457;-70
2022/12/03 06:54:27;;;;;;;31.60;15.90;;;;;;;;;;5094267;28;20451;-69
2022/12/03 06:56:56;;;;;;;21.23;12.27;;;;;;;;;;5094564;28;20469;-69
2022/12/03 06:59:23;;;;;;;23.33;13.20;;;;;;;;;;5094720;28;20796;-69
2022/12/03 07:01:50;;;;;;;24.07;13.90;;;;;;;;;;5094677;28;21003;-69
2022/12/03 07:04:17;;;;;;;28.07;13.07;;;;;;;;;;5094498;28;21012;-70
2022/12/03 07:06:44;;;;;;;24.37;13.27;;;;;;;;;;5094144;28;20490;-69
2022/12/03 07:09:11;;;;;;;28.80;12.90;;;;;;;;;;5094544;28;20453;-69
2022/12/03 07:11:41;;;;;;;22.90;12.53;;;;;;;;;;5094452;28;20817;-69
2022/12/03 07:14:11;;;;;;;23.90;13.10;;;;;;;;;;5094346;28;20533;-69
2022/12/03 07:16:38;;;;;;;24.43;13.67;;;;;;;;;;5094041;28;20475;-69
2022/12/03 07:19:06;;;;;;;22.63;13.40;;;;;;;;;;5093826;28;20802;-69
2022/12/03 07:21:33;;;;;;;24.83;14.20;;;;;;;;;;5094074;28;20454;-69
2022/12/03 07:24:00;;;;;;;18.80;9.20;;;;;;;;;;5093812;28;20454;-69
2022/12/03 07:26:28;;;;;;;29.00;13.03;;;;;;;;;;5093650;28;21017;-69
2022/12/03 07:28:55;;;;;;;27.60;12.73;;;;;;;;;;5093936;28;20431;-69
2022/12/03 07:31:23;;;;;;;26.33;14.10;;;;;;;;;;5093812;28;20430;-69
2022/12/03 07:33:51;;;;;;;24.23;14.97;;;;;;;;;;5093565;28;20451;-69
2022/12/03 07:36:18;;;;;;;26.67;13.77;;;;;;;;;;5093984;28;20442;-69
2022/12/03 07:38:45;;;;;;;29.40;11.83;;;;;;;;;;5093915;28;20966;-69
2022/12/03 07:41:12;;;;;;;25.50;11.63;;;;;;;;;;5093976;28;20451;-69
2022/12/03 07:43:39;;;;;;;26.17;14.50;;;;;;;;;;5093755;28;20812;-69
2022/12/03 07:46:07;;;;;;;24.17;10.80;;;;;;;;;;5093701;28;20995;-69
2022/12/03 07:48:35;;;;;;;25.37;12.20;;;;;;;;;;5093765;28;20525;-69
2022/12/03 07:51:02;;;;;;;25.00;13.50;;;;;;;;;;5093620;28;20525;-69
2022/12/03 07:53:30;;;;;;;29.90;12.30;;;;;;;;;;5093698;28;20443;-69
2022/12/03 07:55:57;;;;;;;24.80;13.60;;;;;;;;;;5093777;28;20654;-69
2022/12/03 07:58:24;;;;;;;23.93;11.73;;;;;;;;;;5093563;28;20830;-69
2022/12/03 08:00:51;;;;;;;32.30;12.57;;;;;;;;;;5093390;28;20451;-69
2022/12/03 08:03:18;;;;;;;27.20;13.80;;;;;;;;;;5093684;28;20446;-69
2022/12/03 08:05:47;;;;;;;28.27;14.17;;;;;;;;;;5093560;28;20501;-69
2022/12/03 08:08:14;;;;;;;35.73;15.87;;;;;;;;;;5091067;28;20496;-69
2022/12/03 08:10:41;;;;;;;33.33;15.43;;;;;;;;;;5091784;28;20443;-69
2022/12/03 08:13:11;;;;;;;26.23;14.67;;;;;;;;;;5091932;28;20932;-69
2022/12/03 08:15:39;;;;;;;27.13;14.63;;;;;;;;;;5091786;28;20466;-69
2022/12/03 08:18:12;;;;;;;25.40;14.90;;;;;;;;;;5091845;28;20497;-69
2022/12/03 08:20:41;;;;;;;26.10;12.67;;;;;;;;;;5092209;28;20934;-69
2022/12/03 08:23:13;;;;;;;24.20;14.00;;;;;;;;;;5092179;28;20541;-69
2022/12/03 08:25:40;;;;;;;24.63;14.00;;;;;;;;;;5091436;28;20471;-69
2022/12/03 08:28:11;;;;;;;29.50;13.13;;;;;;;;;;5092002;28;20528;-69
2022/12/03 08:30:39;;;;;;;35.20;14.43;;;;;;;;;;5091365;28;20431;-69
2022/12/03 08:33:13;;;;;;;33.60;16.23;;;;;;;;;;5091755;28;20448;-69
2022/12/03 08:35:42;;;;;;;43.00;19.60;;;;;;;;;;5091551;28;20434;-69
2022/12/03 08:38:10;;;;;;;30.43;14.47;;;;;;;;;;5091501;28;20470;-69
2022/12/03 08:40:40;;;;;;;35.20;15.27;;;;;;;;;;5091789;28;20458;-69
2022/12/03 08:43:12;;;;;;;63.63;29.03;;;;;;;;;;5091589;28;20450;-69
2022/12/03 08:45:41;;;;;;;36.57;15.33;;;;;;;;;;5091370;28;20521;-69
2022/12/03 08:48:36;;;;;;;27.33;12.40;;;;;;;;;;5091681;28;20474;-69
2022/12/03 08:51:06;;;;;;;28.10;13.10;;;;;;;;;;5091738;28;20772;-69
2022/12/03 08:53:35;;;;;;;28.40;12.10;;;;;;;;;;5091137;28;20796;-71
2022/12/03 08:56:04;;;;;;;20.97;12.97;;;;;;;;;;5091205;28;20453;-69
2022/12/03 08:58:37;;;;;;;26.37;14.23;;;;;;;;;;5090635;28;20473;-70
2022/12/03 09:01:22;;;;;;;29.70;14.20;;;;;;;;;;5092015;28;20447;-69
2022/12/03 09:03:50;;;;;;;33.60;17.13;;;;;;;;;;5081146;28;20469;-69
2022/12/03 09:06:17;;;;;;;23.87;12.50;;;;;;;;;;5091486;28;21013;-70
2022/12/03 09:08:44;;;;;;;35.63;15.70;;;;;;;;;;5091325;28;20458;-69
2022/12/03 09:11:13;;;;;;;23.50;11.43;;;;;;;;;;5091149;28;20449;-69
2022/12/03 09:13:40;;;;;;;34.97;14.27;;;;;;;;;;5091463;28;20482;-69
2022/12/03 09:16:08;;;;;;;26.30;12.27;;;;;;;;;;5091144;28;20450;-69
2022/12/03 09:18:35;;;;;;;29.53;12.57;;;;;;;;;;5091052;28;20480;-69
2022/12/03 09:21:02;;;;;;;26.83;11.63;;;;;;;;;;5091494;28;20446;-69
2022/12/03 09:23:30;;;;;;;24.73;12.03;;;;;;;;;;5091296;28;20549;-69
2022/12/03 09:25:57;;;;;;;31.20;14.43;;;;;;;;;;5091055;28;20967;-69
2022/12/03 09:28:25;;;;;;;24.10;12.70;;;;;;;;;;5091361;28;20959;-69
2022/12/03 09:30:52;;;;;;;33.90;19.23;;;;;;;;;;5091354;28;20430;-69
2022/12/03 09:33:20;;;;;;;22.90;13.60;;;;;;;;;;5090686;28;20475;-69
2022/12/03 09:35:47;;;;;;;26.93;13.47;;;;;;;;;;5091198;28;20461;-69
2022/12/03 09:38:14;;;;;;;29.10;14.47;;;;;;;;;;5091256;28;20466;-69
2022/12/03 09:40:41;;;;;;;23.20;12.67;;;;;;;;;;5091537;28;20450;-69
2022/12/03 09:43:08;;;;;;;27.20;14.17;;;;;;;;;;5094455;28;20454;-69
2022/12/03 09:45:37;;;;;;;27.57;12.27;;;;;;;;;;5094170;28;20450;-69
2022/12/03 09:48:04;;;;;;;21.20;12.40;;;;;;;;;;5094045;28;20557;-69
2022/12/03 09:50:32;;;;;;;30.67;14.97;;;;;;;;;;5095109;28;20513;-69
2022/12/03 09:53:02;;;;;;;26.57;12.80;;;;;;;;;;5095288;28;20434;-69
2022/12/03 09:55:30;;;;;;;25.47;12.90;;;;;;;;;;5095418;28;20455;-69
2022/12/03 09:57:59;;;;;;;31.90;15.83;;;;;;;;;;5095330;28;20463;-69
2022/12/03 10:00:27;;;;;;;52.77;37.43;;;;;;;;;;5095926;28;20947;-69
2022/12/03 10:02:58;;;;;;;44.93;19.27;;;;;;;;;;5095803;28;20818;-69
2022/12/03 10:05:25;;;;;;;32.03;15.33;;;;;;;;;;5095792;28;20439;-69
2022/12/03 10:07:53;;;;;;;27.87;14.60;;;;;;;;;;5095205;28;20565;-69
2022/12/03 10:10:21;;;;;;;29.40;16.80;;;;;;;;;;5095699;28;20454;-69
2022/12/03 10:12:49;;;;;;;31.60;15.70;;;;;;;;;;5095755;28;20832;-69
2022/12/03 10:15:17;;;;;;;23.87;11.50;;;;;;;;;;5095336;28;20450;-69
2022/12/03 10:17:45;;;;;;;30.47;12.00;;;;;;;;;;5095177;28;20932;-69
2022/12/03 10:20:14;;;;;;;27.23;13.57;;;;;;;;;;5095591;28;20458;-69
2022/12/03 10:22:42;;;;;;;28.50;12.33;;;;;;;;;;5095538;28;20443;-69
2022/12/03 10:25:11;;;;;;;22.40;12.43;;;;;;;;;;5094263;28;20538;-69
2022/12/03 10:27:38;;;;;;;69.20;37.30;;;;;;;;;;5095347;28;20490;-69
2022/12/03 10:30:14;;;;;;;27.70;15.47;;;;;;;;;;5095468;28;20435;-69
2022/12/03 10:32:42;;;;;;;464.60;123.17;;;;;;;;;;5095046;28;20434;-69
2022/12/03 10:35:11;;;;;;;233.13;58.57;;;;;;;;;;5095129;28;20461;-69
2022/12/03 10:37:56;;;;;;;162.30;40.43;;;;;;;;;;5095209;28;20975;-69
2022/12/03 10:40:24;;;;;;;37.47;17.50;;;;;;;;;;5095381;28;20439;-69
2022/12/03 10:42:51;;;;;;;29.90;17.57;;;;;;;;;;5095194;28;20450;-69
2022/12/03 10:45:19;;;;;;;42.40;17.50;;;;;;;;;;5094929;28;20829;-69
2022/12/03 10:48:01;;;;;;;53.03;20.40;;;;;;;;;;5094602;28;20493;-69
2022/12/03 10:50:29;;;;;;;24.87;11.13;;;;;;;;;;5095094;28;20899;-69
2022/12/03 10:52:57;;;;;;;34.90;19.77;;;;;;;;;;5094290;28;20450;-69
2022/12/03 10:55:24;;;;;;;99.83;61.83;;;;;;;;;;5094113;28;20430;-69
2022/12/03 10:57:52;;;;;;;34.43;19.40;;;;;;;;;;5094349;28;20967;-69
2022/12/03 11:00:20;;;;;;;35.40;15.23;;;;;;;;;;5094315;28;20446;-69
2022/12/03 11:02:47;;;;;;;32.57;14.47;;;;;;;;;;5094197;28;20458;-69
2022/12/03 11:05:16;;;;;;;27.63;11.87;;;;;;;;;;5094061;28;20451;-69
2022/12/03 11:07:43;;;;;;;21.83;10.60;;;;;;;;;;5094139;28;20912;-69
2022/12/03 11:10:15;;;;;;;26.07;10.70;;;;;;;;;;5093888;28;20466;-69
2022/12/03 11:12:42;;;;;;;23.57;13.23;;;;;;;;;;5094330;28;20799;-69
2022/12/03 11:15:15;;;;;;;19.50;12.57;;;;;;;;;;5094149;28;20932;-69
2022/12/03 11:17:50;;;;;;;25.13;10.77;;;;;;;;;;5093844;28;20574;-69
2022/12/03 11:20:36;;;;;;;20.90;11.17;;;;;;;;;;5094366;28;20500;-71
2022/12/03 11:23:03;;;;;;;23.40;11.50;;;;;;;;;;5094152;28;20452;-75
2022/12/03 11:25:49;;;;;;;18.83;9.90;;;;;;;;;;5092251;28;20825;-74
2022/12/03 11:28:35;;;;;;;21.50;11.23;;;;;;;;;;5093533;28;20516;-74
2022/12/03 11:31:08;;;;;;;16.13;8.63;;;;;;;;;;5093680;28;20817;-75
2022/12/03 11:33:36;;;;;;;20.67;10.83;;;;;;;;;;5093310;28;20498;-74
2022/12/03 11:36:14;;;;;;;20.73;11.60;;;;;;;;;;5093520;28;20841;-73
2022/12/03 11:38:46;;;;;;;26.23;10.90;;;;;;;;;;5093389;28;20455;-76
2022/12/03 11:41:15;;;;;;;16.93;8.93;;;;;;;;;;5096116;28;20450;-76
2022/12/03 11:43:58;;;;;;;23.20;10.10;;;;;;;;;;5111433;28;20456;-76
2022/12/03 11:46:28;;;;;;;23.73;9.80;;;;;;;;;;5109942;28;20460;-76
2022/12/03 11:48:57;;;;;;;24.67;13.33;;;;;;;;;;5111861;28;20454;-77
2022/12/03 11:51:26;;;;;;;16.87;10.30;;;;;;;;;;5113124;28;20449;-73
2022/12/03 11:53:55;;;;;;;22.27;9.93;;;;;;;;;;5114200;28;20426;-73
2022/12/03 11:56:24;;;;;;;22.33;10.17;;;;;;;;;;5113606;28;20459;-74
2022/12/03 11:58:58;;;;;;;22.20;10.60;;;;;;;;;;5114169;28;20812;-74
2022/12/03 12:01:34;;;;;;;23.67;10.97;;;;;;;;;;5113985;28;20458;-74
2022/12/03 12:04:01;;;;;;;23.57;10.87;;;;;;;;;;5113517;28;20449;-73
2022/12/03 12:06:28;;;;;;;24.80;11.67;;;;;;;;;;5113966;28;20480;-73
2022/12/03 12:08:56;;;;;;;18.63;10.17;;;;;;;;;;5113770;28;20440;-73
2022/12/03 12:11:26;;;;;;;28.63;12.23;;;;;;;;;;5114096;28;20449;-73
2022/12/03 12:13:54;;;;;;;19.23;11.03;;;;;;;;;;5113805;28;20450;-73
2022/12/03 12:16:44;;;;;;;22.17;12.97;;;;;;;;;;5113654;28;20552;-73
2022/12/03 12:19:30;;;;;;;28.57;14.87;;;;;;;;;;5113654;28;20895;-72
2022/12/03 12:21:57;;;;;;;28.53;13.03;;;;;;;;;;5113466;28;20456;-72
2022/12/03 12:24:35;;;;;;;25.10;12.60;;;;;;;;;;5113818;28;20454;-73
2022/12/03 12:27:03;;;;;;;27.93;13.50;;;;;;;;;;5113441;28;20497;-73
2022/12/03 12:29:30;;;;;;;24.13;13.47;;;;;;;;;;5113767;28;20476;-73
2022/12/03 12:32:00;;;;;;;23.73;11.77;;;;;;;;;;5113521;28;20457;-72
2022/12/03 12:34:27;;;;;;;33.60;18.70;;;;;;;;;;5113504;28;20446;-72
2022/12/03 12:36:56;;;;;;;24.73;10.50;;;;;;;;;;5113549;28;20467;-73
2022/12/03 12:39:23;;;;;;;25.67;13.60;;;;;;;;;;5113441;28;20450;-73
2022/12/03 12:41:51;;;;;;;21.27;10.67;;;;;;;;;;5113340;28;20442;-72
2022/12/03 12:44:22;;;;;;;47.03;27.80;;;;;;;;;;5113501;28;20450;-73
2022/12/03 12:46:52;;;;;;;43.30;22.53;;;;;;;;;;5113308;28;20481;-73
2022/12/03 12:49:25;;;;;;;33.30;15.97;;;;;;;;;;5113511;28;20434;-73
2022/12/03 12:51:53;;;;;;;24.67;12.90;;;;;;;;;;5113157;28;20506;-73
2022/12/03 12:54:20;;;;;;;28.93;14.27;;;;;;;;;;5113412;28;20485;-73
2022/12/03 12:56:49;;;;;;;25.70;13.30;;;;;;;;;;5113362;28;20465;-73
2022/12/03 12:59:17;;;;;;;26.43;12.40;;;;;;;;;;5113861;28;20465;-73
2022/12/03 13:01:44;;;;;;;27.07;13.90;;;;;;;;;;5113107;28;20537;-73
2022/12/03 13:04:13;;;;;;;26.67;13.73;;;;;;;;;;5108849;28;20456;-73
2022/12/03 13:06:42;;;;;;;34.03;16.93;;;;;;;;;;5091479;28;20478;-73
2022/12/03 13:09:13;;;;;;;28.23;15.30;;;;;;;;;;5092453;28;20438;-73
2022/12/03 13:11:44;;;;;;;30.40;13.00;;;;;;;;;;5092678;28;20435;-73
2022/12/03 13:14:13;;;;;;;28.87;14.90;;;;;;;;;;5093143;28;20435;-73
2022/12/03 13:16:41;;;;;;;33.07;15.20;;;;;;;;;;5094213;28;20509;-74
2022/12/03 13:19:14;;;;;;;24.67;13.13;;;;;;;;;;5096030;28;20795;-73
2022/12/03 13:21:43;;;;;;;32.03;14.77;;;;;;;;;;5096715;28;20810;-73
2022/12/03 13:24:26;;;;;;;26.97;14.50;;;;;;;;;;5096780;28;20465;-73
2022/12/03 13:26:53;;;;;;;34.03;15.13;;;;;;;;;;5096117;28;20810;-73
2022/12/03 13:29:21;;;;;;;26.20;15.23;;;;;;;;;;5096133;28;20940;-73
2022/12/03 13:31:51;;;;;;;31.67;14.40;;;;;;;;;;5096309;28;20455;-73
2022/12/03 13:34:20;;;;;;;23.10;13.23;;;;;;;;;;5095305;28;20460;-73
2022/12/03 13:36:49;;;;;;;11.40;6.77;;;;;;;;;;5095075;28;20474;-73
2022/12/03 13:39:19;;;;;;;31.30;14.53;;;;;;;;;;5095202;28;20446;-74
2022/12/03 13:44:32;;;;;;;24.23;10.80;;;;;;;;;;5096149;28;20422;-73
2022/12/03 13:47:01;;;;;;;25.53;13.20;;;;;;;;;;5096056;28;20473;-73
2022/12/03 13:49:29;;;;;;;27.80;14.30;;;;;;;;;;5096219;28;20461;-73
2022/12/03 13:51:58;;;;;;;34.80;18.50;;;;;;;;;;5096346;28;20806;-73
2022/12/03 13:54:27;;;;;;;33.93;15.63;;;;;;;;;;5096280;28;20796;-73
2022/12/03 13:56:54;;;;;;;28.57;13.90;;;;;;;;;;5096175;28;20471;-73
2022/12/03 13:59:21;;;;;;;25.17;13.97;;;;;;;;;;5096263;28;20941;-74
2022/12/03 14:01:48;;;;;;;31.03;13.20;;;;;;;;;;5096045;28;20454;-72
2022/12/03 14:04:16;;;;;;;18.40;10.60;;;;;;;;;;5095802;28;20455;-73
2022/12/03 14:06:43;;;;;;;24.77;11.90;;;;;;;;;;5095874;28;20838;-73
2022/12/03 14:09:11;;;;;;;39.93;16.67;;;;;;;;;;5096047;28;20491;-73
2022/12/03 14:14:24;;;;;;;34.17;16.50;;;;;;;;;;5095753;28;20402;-73
2022/12/03 14:16:51;;;;;;;37.50;14.87;;;;;;;;;;5095499;28;20975;-73
2022/12/03 14:19:18;;;;;;;22.93;11.67;;;;;;;;;;5095883;28;20779;-73
2022/12/03 14:21:45;;;;;;;23.50;11.70;;;;;;;;;;5095721;28;21018;-73
2022/12/03 14:24:14;;;;;;;24.80;12.67;;;;;;;;;;5095597;28;20457;-74
2022/12/03 14:26:41;;;;;;;17.67;10.03;;;;;;;;;;5095640;28;20488;-74
2022/12/03 14:29:08;;;;;;;28.60;13.83;;;;;;;;;;5095507;28;20494;-74
2022/12/03 14:31:35;;;;;;;25.60;13.40;;;;;;;;;;5095860;28;20451;-73
2022/12/03 14:34:02;;;;;;;20.70;10.17;;;;;;;;;;5095708;28;20958;-73
2022/12/03 14:36:29;;;;;;;29.27;15.03;;;;;;;;;;5095478;28;20447;-73
2022/12/03 14:38:56;;;;;;;26.37;15.27;;;;;;;;;;5095340;28;20569;-74
2022/12/03 14:44:11;;;;;;;33.57;16.57;;;;;;;;;;5095179;28;20410;-74
2022/12/03 14:46:38;;;;;;;27.30;14.33;;;;;;;;;;5095289;28;20532;-73
2022/12/03 14:49:05;;;;;;;32.60;14.43;;;;;;;;;;5095119;28;20487;-73
2022/12/03 14:51:32;;;;;;;26.13;12.13;;;;;;;;;;5095114;28;20998;-73